sensor_id;sensor_type;location;lat;lon;timestamp;temperature;humidity
14749;DHT22;7466;53.574;9.976;2023-08-17T00:00:23;17.80;99.90
14749;DHT22;7466;53.574;9.976;2023-08-17T00:02:50;17.80;99.90
14749;DHT22;7466;53.574;9.976;2023-08-17T00:05:17;17.80;99.90
14749;DHT22;7466;53.574;9.976;2023-08-17T00:07:43;17.80;99.90
14749;DHT22;7466;53.574;9.976;2023-08-17T00:10:10;17.80;99.90
14749;DHT22;7466;53.574;9.976;2023-08-17T00:12:38;17.80;99.90
14749;DHT22;7466;53.574;9.976;2023-08-17T00:15:06;17.80;99.90
14749;DHT22;7466;53.574;9.976;2023-08-17T00:17:33;17.70;99.90
14749;DHT22;7466;53.574;9.976;2023-08-17T00:19:59;17.70;99.90
14749;DHT22;7466;53.574;9.976;2023-08-17T00:22:26;17.60;99.90
14749;DHT22;7466;53.574;9.976;2023-08-17T00:24:53;17.60;99.90
14749;DHT22;7466;53.574;9.976;2023-08-17T00:27:19;17.60;99.90
14749;DHT22;7466;53.574;9.976;2023-08-17T00:29:48;17.60;99.90
14749;DHT22;7466;53.574;9.976;2023-08-17T00:32:14;17.60;99.90
14749;DHT22;7466;53.574;9.976;2023-08-17T00:34:41;17.50;99.90
14749;DHT22;7466;53.574;9.976;2023-08-17T00:37:08;17.50;99.90
14749;DHT22;7466;53.574;9.976;2023-08-17T00:39:34;17.50;99.90
14749;DHT22;7466;53.574;9.976;2023-08-17T00:42:01;17.40;99.90
14749;DHT22;7466;53.574;9.976;2023-08-17T00:44:28;17.40;99.90
14749;DHT22;7466;53.574;9.976;2023-08-17T00:46:56;17.40;99.90
14749;DHT22;7466;53.574;9.976;2023-08-17T00:49:23;17.40;99.90
14749;DHT22;7466;53.574;9.976;2023-08-17T00:51:50;17.40;99.90
14749;DHT22;7466;53.574;9.976;2023-08-17T00:54:24;17.40;99.90
14749;DHT22;7466;53.574;9.976;2023-08-17T00:56:52;17.40;99.90
14749;DHT22;7466;53.574;9.976;2023-08-17T00:59:19;17.40;99.90
14749;DHT22;7466;53.574;9.976;2023-08-17T01:01:46;17.40;99.90
14749;DHT22;7466;53.574;9.976;2023-08-17T01:04:14;17.40;99.90
14749;DHT22;7466;53.574;9.976;2023-08-17T01:06:41;17.40;99.90
14749;DHT22;7466;53.574;9.976;2023-08-17T01:09:08;17.40;99.90
14749;DHT22;7466;53.574;9.976;2023-08-17T01:11:40;17.40;99.90
14749;DHT22;7466;53.574;9.976;2023-08-17T01:14:12;17.40;99.90
14749;DHT22;7466;53.574;9.976;2023-08-17T01:16:47;17.40;99.90
14749;DHT22;7466;53.574;9.976;2023-08-17T01:19:24;17.40;99.90
14749;DHT22;7466;53.574;9.976;2023-08-17T01:21:51;17.40;99.90
14749;DHT22;7466;53.574;9.976;2023-08-17T01:24:22;17.30;99.90
14749;DHT22;7466;53.574;9.976;2023-08-17T01:26:48;17.40;99.90
14749;DHT22;7466;53.574;9.976;2023-08-17T01:29:15;17.40;99.90
14749;DHT22;7466;53.574;9.976;2023-08-17T01:31:47;17.30;99.90
14749;DHT22;7466;53.574;9.976;2023-08-17T01:34:19;17.30;99.90
14749;DHT22;7466;53.574;9.976;2023-08-17T01:36:52;17.30;99.90
14749;DHT22;7466;53.574;9.976;2023-08-17T01:39:24;17.30;99.90
14749;DHT22;7466;53.574;9.976;2023-08-17T01:41:53;17.40;99.90
14749;DHT22;7466;53.574;9.976;2023-08-17T01:44:21;17.30;99.90
14749;DHT22;7466;53.574;9.976;2023-08-17T01:46:48;17.30;99.90
14749;DHT22;7466;53.574;9.976;2023-08-17T01:49:15;17.30;99.90
14749;DHT22;7466;53.574;9.976;2023-08-17T01:51:42;17.30;99.90
14749;DHT22;7466;53.574;9.976;2023-08-17T01:54:08;17.30;99.90
14749;DHT22;7466;53.574;9.976;2023-08-17T01:56:36;17.30;99.90
14749;DHT22;7466;53.574;9.976;2023-08-17T01:59:03;17.20;99.90
14749;DHT22;7466;53.574;9.976;2023-08-17T02:01:30;17.20;99.90
14749;DHT22;7466;53.574;9.976;2023-08-17T02:03:57;17.20;99.90
14749;DHT22;7466;53.574;9.976;2023-08-17T02:06:27;17.30;99.90
14749;DHT22;7466;53.574;9.976;2023-08-17T02:08:54;17.30;99.90
14749;DHT22;7466;53.574;9.976;2023-08-17T02:11:21;17.30;99.90
14749;DHT22;7466;53.574;9.976;2023-08-17T02:13:49;17.30;99.90
14749;DHT22;7466;53.574;9.976;2023-08-17T02:16:15;17.30;99.90
14749;DHT22;7466;53.574;9.976;2023-08-17T02:18:42;17.20;99.90
14749;DHT22;7466;53.574;9.976;2023-08-17T02:21:09;17.20;99.90
14749;DHT22;7466;53.574;9.976;2023-08-17T02:23:36;17.20;99.90
14749;DHT22;7466;53.574;9.976;2023-08-17T02:26:02;17.20;99.90
14749;DHT22;7466;53.574;9.976;2023-08-17T02:28:29;17.10;99.90
14749;DHT22;7466;53.574;9.976;2023-08-17T02:30:58;17.10;99.90
14749;DHT22;7466;53.574;9.976;2023-08-17T02:33:25;17.10;99.90
14749;DHT22;7466;53.574;9.976;2023-08-17T02:35:52;17.10;99.90
14749;DHT22;7466;53.574;9.976;2023-08-17T02:38:20;17.10;99.90
14749;DHT22;7466;53.574;9.976;2023-08-17T02:40:48;17.10;99.90
14749;DHT22;7466;53.574;9.976;2023-08-17T02:43:15;17.00;99.90
14749;DHT22;7466;53.574;9.976;2023-08-17T02:45:42;17.10;99.90
14749;DHT22;7466;53.574;9.976;2023-08-17T02:48:10;17.10;99.90
14749;DHT22;7466;53.574;9.976;2023-08-17T02:50:37;17.00;99.90
14749;DHT22;7466;53.574;9.976;2023-08-17T02:53:04;17.00;99.90
14749;DHT22;7466;53.574;9.976;2023-08-17T02:55:31;17.00;99.90
14749;DHT22;7466;53.574;9.976;2023-08-17T02:57:58;17.00;99.90
14749;DHT22;7466;53.574;9.976;2023-08-17T03:00:25;17.00;99.90
14749;DHT22;7466;53.574;9.976;2023-08-17T03:02:51;17.00;99.90
14749;DHT22;7466;53.574;9.976;2023-08-17T03:05:20;17.00;99.90
14749;DHT22;7466;53.574;9.976;2023-08-17T03:07:47;16.90;99.90
14749;DHT22;7466;53.574;9.976;2023-08-17T03:10:14;16.90;99.90
14749;DHT22;7466;53.574;9.976;2023-08-17T03:12:40;17.00;99.90
14749;DHT22;7466;53.574;9.976;2023-08-17T03:15:08;16.90;99.90
14749;DHT22;7466;53.574;9.976;2023-08-17T03:17:35;16.90;99.90
14749;DHT22;7466;53.574;9.976;2023-08-17T03:20:02;16.90;99.90
14749;DHT22;7466;53.574;9.976;2023-08-17T03:22:33;16.90;99.90
14749;DHT22;7466;53.574;9.976;2023-08-17T03:24:59;16.90;99.90
14749;DHT22;7466;53.574;9.976;2023-08-17T03:27:26;17.00;99.90
14749;DHT22;7466;53.574;9.976;2023-08-17T03:29:54;16.90;99.90
14749;DHT22;7466;53.574;9.976;2023-08-17T03:32:21;17.00;99.90
14749;DHT22;7466;53.574;9.976;2023-08-17T03:34:47;17.00;99.90
14749;DHT22;7466;53.574;9.976;2023-08-17T03:37:14;17.00;99.90
14749;DHT22;7466;53.574;9.976;2023-08-17T03:39:42;17.00;99.90
14749;DHT22;7466;53.574;9.976;2023-08-17T03:42:09;17.00;99.90
14749;DHT22;7466;53.574;9.976;2023-08-17T03:44:35;17.00;99.90
14749;DHT22;7466;53.574;9.976;2023-08-17T03:47:02;17.00;99.90
14749;DHT22;7466;53.574;9.976;2023-08-17T03:49:29;17.00;99.90
14749;DHT22;7466;53.574;9.976;2023-08-17T03:51:55;17.00;99.90
14749;DHT22;7466;53.574;9.976;2023-08-17T03:54:22;17.00;99.90
14749;DHT22;7466;53.574;9.976;2023-08-17T03:56:50;17.00;99.90
14749;DHT22;7466;53.574;9.976;2023-08-17T03:59:17;17.00;99.90
14749;DHT22;7466;53.574;9.976;2023-08-17T04:01:44;17.00;99.90
14749;DHT22;7466;53.574;9.976;2023-08-17T04:04:11;16.90;99.90
14749;DHT22;7466;53.574;9.976;2023-08-17T04:06:37;17.00;99.90
14749;DHT22;7466;53.574;9.976;2023-08-17T04:09:05;17.00;99.90
14749;DHT22;7466;53.574;9.976;2023-08-17T04:11:33;17.00;99.90
14749;DHT22;7466;53.574;9.976;2023-08-17T04:14:02;17.00;99.90
14749;DHT22;7466;53.574;9.976;2023-08-17T04:16:29;17.00;99.90
14749;DHT22;7466;53.574;9.976;2023-08-17T04:18:55;17.00;99.90
14749;DHT22;7466;53.574;9.976;2023-08-17T04:21:22;17.00;99.90
14749;DHT22;7466;53.574;9.976;2023-08-17T04:23:49;16.90;99.90
14749;DHT22;7466;53.574;9.976;2023-08-17T04:26:15;16.90;99.90
14749;DHT22;7466;53.574;9.976;2023-08-17T04:28:42;16.90;99.90
14749;DHT22;7466;53.574;9.976;2023-08-17T04:31:10;16.90;99.90
14749;DHT22;7466;53.574;9.976;2023-08-17T04:33:37;17.00;99.90
14749;DHT22;7466;53.574;9.976;2023-08-17T04:36:04;16.90;99.90
14749;DHT22;7466;53.574;9.976;2023-08-17T04:38:31;17.00;99.90
14749;DHT22;7466;53.574;9.976;2023-08-17T04:40:58;17.00;99.90
14749;DHT22;7466;53.574;9.976;2023-08-17T04:43:25;17.00;99.90
14749;DHT22;7466;53.574;9.976;2023-08-17T04:45:51;17.00;99.90
14749;DHT22;7466;53.574;9.976;2023-08-17T04:48:19;17.00;99.90
14749;DHT22;7466;53.574;9.976;2023-08-17T04:50:46;17.00;99.90
14749;DHT22;7466;53.574;9.976;2023-08-17T04:53:13;17.00;99.90
14749;DHT22;7466;53.574;9.976;2023-08-17T04:55:39;17.00;99.90
14749;DHT22;7466;53.574;9.976;2023-08-17T04:58:06;17.00;99.90
14749;DHT22;7466;53.574;9.976;2023-08-17T05:00:33;17.00;99.90
14749;DHT22;7466;53.574;9.976;2023-08-17T05:03:00;17.00;99.90
14749;DHT22;7466;53.574;9.976;2023-08-17T05:05:28;17.00;99.90
14749;DHT22;7466;53.574;9.976;2023-08-17T05:07:54;16.90;99.90
14749;DHT22;7466;53.574;9.976;2023-08-17T05:10:21;16.90;99.90
14749;DHT22;7466;53.574;9.976;2023-08-17T05:12:48;16.90;99.90
14749;DHT22;7466;53.574;9.976;2023-08-17T05:15:15;16.90;99.90
14749;DHT22;7466;53.574;9.976;2023-08-17T05:17:41;16.90;99.90
14749;DHT22;7466;53.574;9.976;2023-08-17T05:20:09;16.80;99.90
14749;DHT22;7466;53.574;9.976;2023-08-17T05:22:37;16.80;99.90
14749;DHT22;7466;53.574;9.976;2023-08-17T05:25:05;16.80;99.90
14749;DHT22;7466;53.574;9.976;2023-08-17T05:27:31;16.80;99.90
14749;DHT22;7466;53.574;9.976;2023-08-17T05:29:58;16.80;99.90
14749;DHT22;7466;53.574;9.976;2023-08-17T05:32:25;16.80;99.90
14749;DHT22;7466;53.574;9.976;2023-08-17T05:34:51;16.80;99.90
14749;DHT22;7466;53.574;9.976;2023-08-17T05:37:18;16.80;99.90
14749;DHT22;7466;53.574;9.976;2023-08-17T05:39:46;16.80;99.90
14749;DHT22;7466;53.574;9.976;2023-08-17T05:42:13;16.90;99.90
14749;DHT22;7466;53.574;9.976;2023-08-17T05:44:40;16.90;99.90
14749;DHT22;7466;53.574;9.976;2023-08-17T05:47:07;16.80;99.90
14749;DHT22;7466;53.574;9.976;2023-08-17T05:49:33;16.90;99.90
14749;DHT22;7466;53.574;9.976;2023-08-17T05:52:00;16.90;99.90
14749;DHT22;7466;53.574;9.976;2023-08-17T05:54:27;16.80;99.90
14749;DHT22;7466;53.574;9.976;2023-08-17T05:56:55;16.80;99.90
14749;DHT22;7466;53.574;9.976;2023-08-17T05:59:22;16.80;99.90
14749;DHT22;7466;53.574;9.976;2023-08-17T06:01:48;16.70;99.90
14749;DHT22;7466;53.574;9.976;2023-08-17T06:04:15;16.70;99.90
14749;DHT22;7466;53.574;9.976;2023-08-17T06:06:42;16.70;99.90
14749;DHT22;7466;53.574;9.976;2023-08-17T06:09:09;16.70;99.90
14749;DHT22;7466;53.574;9.976;2023-08-17T06:11:35;16.60;99.90
14749;DHT22;7466;53.574;9.976;2023-08-17T06:14:04;16.60;99.90
14749;DHT22;7466;53.574;9.976;2023-08-17T06:16:31;16.50;99.90
14749;DHT22;7466;53.574;9.976;2023-08-17T06:18:58;16.60;99.90
14749;DHT22;7466;53.574;9.976;2023-08-17T06:21:24;16.50;99.90
14749;DHT22;7466;53.574;9.976;2023-08-17T06:23:51;16.60;99.90
14749;DHT22;7466;53.574;9.976;2023-08-17T06:26:18;16.50;99.90
14749;DHT22;7466;53.574;9.976;2023-08-17T06:28:45;16.50;99.90
14749;DHT22;7466;53.574;9.976;2023-08-17T06:31:15;16.50;99.90
14749;DHT22;7466;53.574;9.976;2023-08-17T06:33:42;16.50;99.90
14749;DHT22;7466;53.574;9.976;2023-08-17T06:36:09;16.50;99.90
14749;DHT22;7466;53.574;9.976;2023-08-17T06:38:38;16.50;99.90
14749;DHT22;7466;53.574;9.976;2023-08-17T06:41:05;16.50;99.90
14749;DHT22;7466;53.574;9.976;2023-08-17T06:43:32;16.50;99.90
14749;DHT22;7466;53.574;9.976;2023-08-17T06:45:58;16.50;99.90
14749;DHT22;7466;53.574;9.976;2023-08-17T06:48:27;16.50;99.90
14749;DHT22;7466;53.574;9.976;2023-08-17T06:50:53;16.40;99.90
14749;DHT22;7466;53.574;9.976;2023-08-17T06:53:20;16.40;99.90
14749;DHT22;7466;53.574;9.976;2023-08-17T06:55:47;16.40;99.90
14749;DHT22;7466;53.574;9.976;2023-08-17T06:58:14;16.40;99.90
14749;DHT22;7466;53.574;9.976;2023-08-17T07:00:40;16.40;99.90
14749;DHT22;7466;53.574;9.976;2023-08-17T07:03:09;16.40;99.90
14749;DHT22;7466;53.574;9.976;2023-08-17T07:05:37;16.40;99.90
14749;DHT22;7466;53.574;9.976;2023-08-17T07:08:04;16.40;99.90
14749;DHT22;7466;53.574;9.976;2023-08-17T07:10:32;16.40;99.90
14749;DHT22;7466;53.574;9.976;2023-08-17T07:12:59;16.40;99.90
14749;DHT22;7466;53.574;9.976;2023-08-17T07:15:28;16.30;99.90
14749;DHT22;7466;53.574;9.976;2023-08-17T07:17:55;16.40;99.90
14749;DHT22;7466;53.574;9.976;2023-08-17T07:20:22;16.30;99.90
14749;DHT22;7466;53.574;9.976;2023-08-17T07:22:50;16.30;99.90
14749;DHT22;7466;53.574;9.976;2023-08-17T07:25:17;16.30;99.90
14749;DHT22;7466;53.574;9.976;2023-08-17T07:27:43;16.30;99.90
14749;DHT22;7466;53.574;9.976;2023-08-17T07:30:11;16.20;99.90
14749;DHT22;7466;53.574;9.976;2023-08-17T07:32:38;16.10;99.90
14749;DHT22;7466;53.574;9.976;2023-08-17T07:35:04;16.20;99.90
14749;DHT22;7466;53.574;9.976;2023-08-17T07:37:31;16.20;99.90
14749;DHT22;7466;53.574;9.976;2023-08-17T07:40:00;16.10;99.90
14749;DHT22;7466;53.574;9.976;2023-08-17T07:42:28;16.20;99.90
14749;DHT22;7466;53.574;9.976;2023-08-17T07:44:55;16.10;99.90
14749;DHT22;7466;53.574;9.976;2023-08-17T07:47:22;16.10;99.90
14749;DHT22;7466;53.574;9.976;2023-08-17T07:49:49;16.10;99.90
14749;DHT22;7466;53.574;9.976;2023-08-17T07:52:16;16.10;99.90
14749;DHT22;7466;53.574;9.976;2023-08-17T07:54:43;16.10;99.90
14749;DHT22;7466;53.574;9.976;2023-08-17T07:57:11;16.10;99.90
14749;DHT22;7466;53.574;9.976;2023-08-17T07:59:37;16.10;99.90
14749;DHT22;7466;53.574;9.976;2023-08-17T08:02:04;16.20;99.90
14749;DHT22;7466;53.574;9.976;2023-08-17T08:04:31;16.20;99.90
14749;DHT22;7466;53.574;9.976;2023-08-17T08:06:57;16.30;99.90
14749;DHT22;7466;53.574;9.976;2023-08-17T08:09:24;16.30;99.90
14749;DHT22;7466;53.574;9.976;2023-08-17T08:11:51;16.30;99.90
14749;DHT22;7466;53.574;9.976;2023-08-17T08:14:19;16.30;99.90
14749;DHT22;7466;53.574;9.976;2023-08-17T08:16:45;16.50;99.90
14749;DHT22;7466;53.574;9.976;2023-08-17T08:19:13;16.50;99.90
14749;DHT22;7466;53.574;9.976;2023-08-17T08:21:39;16.50;99.90
14749;DHT22;7466;53.574;9.976;2023-08-17T08:24:06;16.60;99.90
14749;DHT22;7466;53.574;9.976;2023-08-17T08:26:33;16.60;99.90
14749;DHT22;7466;53.574;9.976;2023-08-17T08:29:00;16.60;99.90
14749;DHT22;7466;53.574;9.976;2023-08-17T08:31:28;16.60;99.90
14749;DHT22;7466;53.574;9.976;2023-08-17T08:33:55;16.60;99.90
14749;DHT22;7466;53.574;9.976;2023-08-17T08:36:21;16.60;99.90
14749;DHT22;7466;53.574;9.976;2023-08-17T08:38:48;16.40;99.90
14749;DHT22;7466;53.574;9.976;2023-08-17T08:41:15;16.30;99.90
14749;DHT22;7466;53.574;9.976;2023-08-17T08:43:42;16.30;99.90
14749;DHT22;7466;53.574;9.976;2023-08-17T08:46:09;16.20;99.90
14749;DHT22;7466;53.574;9.976;2023-08-17T08:48:39;16.30;99.90
14749;DHT22;7466;53.574;9.976;2023-08-17T08:51:08;16.30;99.90
14749;DHT22;7466;53.574;9.976;2023-08-17T08:53:42;16.30;99.90
14749;DHT22;7466;53.574;9.976;2023-08-17T08:56:11;16.40;99.90
14749;DHT22;7466;53.574;9.976;2023-08-17T08:58:40;16.30;99.90
14749;DHT22;7466;53.574;9.976;2023-08-17T09:01:10;16.30;99.90
14749;DHT22;7466;53.574;9.976;2023-08-17T09:03:39;16.30;99.90
14749;DHT22;7466;53.574;9.976;2023-08-17T09:06:07;16.50;99.90
14749;DHT22;7466;53.574;9.976;2023-08-17T09:08:34;16.40;99.90
14749;DHT22;7466;53.574;9.976;2023-08-17T09:11:01;16.40;99.90
14749;DHT22;7466;53.574;9.976;2023-08-17T09:13:28;16.40;99.90
14749;DHT22;7466;53.574;9.976;2023-08-17T09:15:57;16.40;99.90
14749;DHT22;7466;53.574;9.976;2023-08-17T09:18:25;16.50;99.90
14749;DHT22;7466;53.574;9.976;2023-08-17T09:20:53;16.60;99.90
14749;DHT22;7466;53.574;9.976;2023-08-17T09:23:21;16.60;99.90
14749;DHT22;7466;53.574;9.976;2023-08-17T09:25:49;16.60;99.90
14749;DHT22;7466;53.574;9.976;2023-08-17T09:28:18;16.70;99.90
14749;DHT22;7466;53.574;9.976;2023-08-17T09:30:56;16.60;99.90
14749;DHT22;7466;53.574;9.976;2023-08-17T09:33:24;16.60;99.90
14749;DHT22;7466;53.574;9.976;2023-08-17T09:35:53;16.60;99.90
14749;DHT22;7466;53.574;9.976;2023-08-17T09:38:21;16.70;99.90
14749;DHT22;7466;53.574;9.976;2023-08-17T09:40:48;16.60;99.90
14749;DHT22;7466;53.574;9.976;2023-08-17T09:43:15;16.80;99.90
14749;DHT22;7466;53.574;9.976;2023-08-17T09:45:43;16.80;99.90
14749;DHT22;7466;53.574;9.976;2023-08-17T09:48:14;16.90;99.90
14749;DHT22;7466;53.574;9.976;2023-08-17T09:50:42;16.90;99.90
14749;DHT22;7466;53.574;9.976;2023-08-17T09:53:14;17.00;99.90
14749;DHT22;7466;53.574;9.976;2023-08-17T09:55:41;17.10;99.90
14749;DHT22;7466;53.574;9.976;2023-08-17T09:58:08;17.00;99.90
14749;DHT22;7466;53.574;9.976;2023-08-17T10:00:36;17.10;99.90
14749;DHT22;7466;53.574;9.976;2023-08-17T10:03:04;17.10;99.90
14749;DHT22;7466;53.574;9.976;2023-08-17T10:05:36;17.10;99.90
14749;DHT22;7466;53.574;9.976;2023-08-17T10:08:06;17.20;99.90
14749;DHT22;7466;53.574;9.976;2023-08-17T10:10:36;17.20;99.90
14749;DHT22;7466;53.574;9.976;2023-08-17T10:13:08;17.30;99.90
14749;DHT22;7466;53.574;9.976;2023-08-17T10:18:26;17.10;99.90
14749;DHT22;7466;53.574;9.976;2023-08-17T10:21:00;16.90;99.90
14749;DHT22;7466;53.574;9.976;2023-08-17T10:23:28;16.80;99.90
14749;DHT22;7466;53.574;9.976;2023-08-17T10:25:56;16.80;99.90
14749;DHT22;7466;53.574;9.976;2023-08-17T10:28:24;16.70;99.90
14749;DHT22;7466;53.574;9.976;2023-08-17T10:30:51;16.80;99.90
14749;DHT22;7466;53.574;9.976;2023-08-17T10:33:18;16.80;99.90
14749;DHT22;7466;53.574;9.976;2023-08-17T10:35:45;16.80;99.90
14749;DHT22;7466;53.574;9.976;2023-08-17T10:38:12;16.80;99.90
14749;DHT22;7466;53.574;9.976;2023-08-17T10:40:41;16.90;99.90
14749;DHT22;7466;53.574;9.976;2023-08-17T10:43:09;16.80;99.90
14749;DHT22;7466;53.574;9.976;2023-08-17T10:45:37;16.90;99.90
14749;DHT22;7466;53.574;9.976;2023-08-17T10:48:27;17.10;99.90
14749;DHT22;7466;53.574;9.976;2023-08-17T10:51:02;17.40;99.90
14749;DHT22;7466;53.574;9.976;2023-08-17T10:53:37;17.60;99.90
14749;DHT22;7466;53.574;9.976;2023-08-17T10:56:11;17.50;99.90
14749;DHT22;7466;53.574;9.976;2023-08-17T10:58:39;17.40;99.90
14749;DHT22;7466;53.574;9.976;2023-08-17T11:01:08;17.50;99.90
14749;DHT22;7466;53.574;9.976;2023-08-17T11:03:35;17.40;99.90
14749;DHT22;7466;53.574;9.976;2023-08-17T11:06:16;17.20;99.90
14749;DHT22;7466;53.574;9.976;2023-08-17T11:08:54;17.20;99.90
14749;DHT22;7466;53.574;9.976;2023-08-17T11:11:22;17.00;99.90
14749;DHT22;7466;53.574;9.976;2023-08-17T11:13:52;16.80;99.90
14749;DHT22;7466;53.574;9.976;2023-08-17T11:16:19;16.90;99.90
14749;DHT22;7466;53.574;9.976;2023-08-17T11:18:46;16.70;99.90
14749;DHT22;7466;53.574;9.976;2023-08-17T11:21:14;16.70;99.90
14749;DHT22;7466;53.574;9.976;2023-08-17T11:23:41;16.40;99.90
14749;DHT22;7466;53.574;9.976;2023-08-17T11:26:08;16.40;99.90
14749;DHT22;7466;53.574;9.976;2023-08-17T11:28:35;16.30;99.90
14749;DHT22;7466;53.574;9.976;2023-08-17T11:31:06;16.30;99.90
14749;DHT22;7466;53.574;9.976;2023-08-17T11:33:34;16.30;99.90
14749;DHT22;7466;53.574;9.976;2023-08-17T11:36:02;16.10;99.90
14749;DHT22;7466;53.574;9.976;2023-08-17T11:38:31;16.00;99.90
14749;DHT22;7466;53.574;9.976;2023-08-17T11:40:58;16.10;99.90
14749;DHT22;7466;53.574;9.976;2023-08-17T11:43:25;16.10;99.90
14749;DHT22;7466;53.574;9.976;2023-08-17T11:45:54;16.10;99.90
14749;DHT22;7466;53.574;9.976;2023-08-17T11:48:23;16.00;99.90
14749;DHT22;7466;53.574;9.976;2023-08-17T11:50:51;16.10;99.90
14749;DHT22;7466;53.574;9.976;2023-08-17T11:53:18;16.10;99.90
14749;DHT22;7466;53.574;9.976;2023-08-17T11:55:45;16.10;99.90
14749;DHT22;7466;53.574;9.976;2023-08-17T11:58:11;16.20;99.90
14749;DHT22;7466;53.574;9.976;2023-08-17T12:00:40;16.40;99.90
14749;DHT22;7466;53.574;9.976;2023-08-17T12:03:07;16.50;99.90
14749;DHT22;7466;53.574;9.976;2023-08-17T12:05:36;16.60;99.90
14749;DHT22;7466;53.574;9.976;2023-08-17T12:08:03;16.60;99.90
14749;DHT22;7466;53.574;9.976;2023-08-17T12:10:31;16.80;99.90
14749;DHT22;7466;53.574;9.976;2023-08-17T12:12:58;16.80;99.90
14749;DHT22;7466;53.574;9.976;2023-08-17T12:15:30;17.00;99.90
14749;DHT22;7466;53.574;9.976;2023-08-17T12:17:59;17.10;99.90
14749;DHT22;7466;53.574;9.976;2023-08-17T12:20:26;17.10;99.90
14749;DHT22;7466;53.574;9.976;2023-08-17T12:22:54;17.00;99.90
14749;DHT22;7466;53.574;9.976;2023-08-17T12:25:21;16.90;99.90
14749;DHT22;7466;53.574;9.976;2023-08-17T12:27:48;16.90;99.90
14749;DHT22;7466;53.574;9.976;2023-08-17T12:30:25;17.00;99.90
14749;DHT22;7466;53.574;9.976;2023-08-17T12:32:51;17.00;99.90
14749;DHT22;7466;53.574;9.976;2023-08-17T12:35:18;17.00;99.90
14749;DHT22;7466;53.574;9.976;2023-08-17T12:37:47;17.00;99.90
14749;DHT22;7466;53.574;9.976;2023-08-17T12:40:15;17.10;99.90
14749;DHT22;7466;53.574;9.976;2023-08-17T12:42:42;17.10;99.90
14749;DHT22;7466;53.574;9.976;2023-08-17T12:45:09;17.30;99.90
14749;DHT22;7466;53.574;9.976;2023-08-17T12:47:36;17.20;99.90
14749;DHT22;7466;53.574;9.976;2023-08-17T12:50:03;17.20;99.90
14749;DHT22;7466;53.574;9.976;2023-08-17T12:52:30;17.30;99.90
14749;DHT22;7466;53.574;9.976;2023-08-17T12:54:57;17.10;99.90
14749;DHT22;7466;53.574;9.976;2023-08-17T12:57:25;17.10;99.90
14749;DHT22;7466;53.574;9.976;2023-08-17T12:59:53;17.20;99.90
14749;DHT22;7466;53.574;9.976;2023-08-17T13:02:20;17.30;99.90
14749;DHT22;7466;53.574;9.976;2023-08-17T13:04:46;17.20;99.90
14749;DHT22;7466;53.574;9.976;2023-08-17T13:07:13;17.10;99.90
14749;DHT22;7466;53.574;9.976;2023-08-17T13:09:41;17.10;99.90
14749;DHT22;7466;53.574;9.976;2023-08-17T13:12:08;17.20;99.90
14749;DHT22;7466;53.574;9.976;2023-08-17T13:14:36;17.20;99.90
14749;DHT22;7466;53.574;9.976;2023-08-17T13:17:03;17.10;99.90
14749;DHT22;7466;53.574;9.976;2023-08-17T13:19:29;17.10;99.90
14749;DHT22;7466;53.574;9.976;2023-08-17T13:21:56;16.90;99.90
14749;DHT22;7466;53.574;9.976;2023-08-17T13:24:23;16.90;99.90
14749;DHT22;7466;53.574;9.976;2023-08-17T13:26:50;16.90;99.90
14749;DHT22;7466;53.574;9.976;2023-08-17T13:29:19;16.80;99.90
14749;DHT22;7466;53.574;9.976;2023-08-17T13:31:48;16.50;99.90
14749;DHT22;7466;53.574;9.976;2023-08-17T13:34:14;16.30;99.90
14749;DHT22;7466;53.574;9.976;2023-08-17T13:36:41;16.00;99.90
14749;DHT22;7466;53.574;9.976;2023-08-17T13:39:08;15.80;99.90
14749;DHT22;7466;53.574;9.976;2023-08-17T13:41:35;15.90;99.90
14749;DHT22;7466;53.574;9.976;2023-08-17T13:44:02;15.90;99.90
14749;DHT22;7466;53.574;9.976;2023-08-17T13:46:29;16.00;99.90
14749;DHT22;7466;53.574;9.976;2023-08-17T13:48:57;16.20;99.90
14749;DHT22;7466;53.574;9.976;2023-08-17T13:51:24;16.40;99.90
14749;DHT22;7466;53.574;9.976;2023-08-17T13:53:51;16.50;99.90
14749;DHT22;7466;53.574;9.976;2023-08-17T13:56:17;16.80;99.90
14749;DHT22;7466;53.574;9.976;2023-08-17T13:58:44;16.80;99.90
14749;DHT22;7466;53.574;9.976;2023-08-17T14:01:11;17.00;99.90
14749;DHT22;7466;53.574;9.976;2023-08-17T14:03:38;17.00;99.90
14749;DHT22;7466;53.574;9.976;2023-08-17T14:06:06;17.10;99.90
14749;DHT22;7466;53.574;9.976;2023-08-17T14:08:32;17.10;99.90
14749;DHT22;7466;53.574;9.976;2023-08-17T14:10:59;17.00;99.90
14749;DHT22;7466;53.574;9.976;2023-08-17T14:13:26;16.90;99.90
14749;DHT22;7466;53.574;9.976;2023-08-17T14:15:53;17.10;99.90
14749;DHT22;7466;53.574;9.976;2023-08-17T14:18:21;17.20;99.90
14749;DHT22;7466;53.574;9.976;2023-08-17T14:20:48;17.10;99.90
14749;DHT22;7466;53.574;9.976;2023-08-17T14:23:16;17.00;99.90
14749;DHT22;7466;53.574;9.976;2023-08-17T14:25:43;17.00;99.90
14749;DHT22;7466;53.574;9.976;2023-08-17T14:28:09;17.00;99.90
14749;DHT22;7466;53.574;9.976;2023-08-17T14:30:36;16.90;99.90
14749;DHT22;7466;53.574;9.976;2023-08-17T14:33:03;17.00;99.90
14749;DHT22;7466;53.574;9.976;2023-08-17T14:35:30;16.80;99.90
14749;DHT22;7466;53.574;9.976;2023-08-17T14:37:57;16.90;99.90
14749;DHT22;7466;53.574;9.976;2023-08-17T14:40:27;16.80;99.90
14749;DHT22;7466;53.574;9.976;2023-08-17T14:42:54;16.90;99.90
14749;DHT22;7466;53.574;9.976;2023-08-17T14:45:21;16.90;99.90
14749;DHT22;7466;53.574;9.976;2023-08-17T14:47:48;16.90;99.90
14749;DHT22;7466;53.574;9.976;2023-08-17T14:50:14;16.90;99.90
14749;DHT22;7466;53.574;9.976;2023-08-17T14:52:41;17.00;99.90
14749;DHT22;7466;53.574;9.976;2023-08-17T14:55:08;16.90;99.90
14749;DHT22;7466;53.574;9.976;2023-08-17T14:57:36;16.80;99.90
14749;DHT22;7466;53.574;9.976;2023-08-17T15:00:04;16.80;99.90
14749;DHT22;7466;53.574;9.976;2023-08-17T15:02:31;17.00;99.90
14749;DHT22;7466;53.574;9.976;2023-08-17T15:04:57;17.10;99.90
14749;DHT22;7466;53.574;9.976;2023-08-17T15:07:24;17.10;99.90
14749;DHT22;7466;53.574;9.976;2023-08-17T15:09:51;17.10;99.90
14749;DHT22;7466;53.574;9.976;2023-08-17T15:12:18;17.10;99.90
14749;DHT22;7466;53.574;9.976;2023-08-17T15:14:46;17.10;99.90
14749;DHT22;7466;53.574;9.976;2023-08-17T15:17:12;17.10;99.90
14749;DHT22;7466;53.574;9.976;2023-08-17T15:19:39;17.00;99.90
14749;DHT22;7466;53.574;9.976;2023-08-17T15:22:06;16.90;99.90
14749;DHT22;7466;53.574;9.976;2023-08-17T15:24:33;16.80;99.90
14749;DHT22;7466;53.574;9.976;2023-08-17T15:26:59;16.80;99.90
14749;DHT22;7466;53.574;9.976;2023-08-17T15:29:26;16.80;99.90
14749;DHT22;7466;53.574;9.976;2023-08-17T15:31:54;16.80;99.90
14749;DHT22;7466;53.574;9.976;2023-08-17T15:34:21;16.70;99.90
14749;DHT22;7466;53.574;9.976;2023-08-17T15:36:48;16.70;99.90
14749;DHT22;7466;53.574;9.976;2023-08-17T15:39:14;16.70;99.90
14749;DHT22;7466;53.574;9.976;2023-08-17T15:41:41;16.70;99.90
14749;DHT22;7466;53.574;9.976;2023-08-17T15:44:08;16.70;99.90
14749;DHT22;7466;53.574;9.976;2023-08-17T15:46:34;16.70;99.90
14749;DHT22;7466;53.574;9.976;2023-08-17T15:49:03;16.70;99.90